Time;durP1;ratioP1;P1;durP2;ratioP2;P2;SDS_P1;SDS_P2;PMS_P1;PMS_P2;Temp;Humidity;BMP_temperature;BMP_pressure;BME280_temperature;BME280_humidity;BME280_pressure;Samples;Min_cycle;Max_cycle;Signal;HPM_P1;HPM_P2
2022/01/11 00:01:47;;;;;;;23.98;11.02;;;;;;;;;;4857578;29;20132;-74
2022/01/11 00:04:16;;;;;;;25.98;11.40;;;;;;;;;;4874105;29;20418;-73
2022/01/11 00:06:50;;;;;;;24.75;11.50;;;;;;;;;;4874618;29;20481;-74
2022/01/11 00:09:31;;;;;;;24.23;11.13;;;;;;;;;;4875392;29;20056;-73
2022/01/11 00:11:58;;;;;;;25.50;10.70;;;;;;;;;;4874527;29;20060;-73
2022/01/11 00:14:24;;;;;;;24.45;11.38;;;;;;;;;;4874455;29;20410;-73
2022/01/11 00:16:50;;;;;;;25.42;10.80;;;;;;;;;;4873942;29;20041;-73
2022/01/11 00:19:16;;;;;;;28.17;12.10;;;;;;;;;;4873890;29;20044;-74
2022/01/11 00:21:48;;;;;;;24.20;12.15;;;;;;;;;;4873716;29;20493;-73
2022/01/11 00:24:32;;;;;;;28.17;11.18;;;;;;;;;;4874479;29;20144;-73
2022/01/11 00:27:00;;;;;;;23.33;11.07;;;;;;;;;;4874482;29;20060;-73
2022/01/11 00:29:27;;;;;;;26.52;12.50;;;;;;;;;;4874825;29;20045;-73
2022/01/11 00:31:55;;;;;;;29.30;12.85;;;;;;;;;;4875112;29;20045;-74
2022/01/11 00:34:23;;;;;;;24.15;12.10;;;;;;;;;;4874843;29;20379;-74
2022/01/11 00:36:49;;;;;;;25.70;11.77;;;;;;;;;;4874714;29;20056;-73
2022/01/11 00:39:15;;;;;;;30.48;12.65;;;;;;;;;;4874680;29;20128;-73
2022/01/11 00:41:42;;;;;;;22.67;11.43;;;;;;;;;;4875514;29;20121;-73
2022/01/11 00:44:10;;;;;;;22.15;10.73;;;;;;;;;;4877441;29;20041;-73
2022/01/11 00:46:36;;;;;;;23.70;11.32;;;;;;;;;;4872344;29;20561;-74
2022/01/11 00:49:02;;;;;;;21.75;11.50;;;;;;;;;;4873480;29;20045;-73
2022/01/11 00:51:28;;;;;;;22.35;10.93;;;;;;;;;;4874046;29;20040;-74
2022/01/11 00:53:55;;;;;;;23.77;10.90;;;;;;;;;;4874134;29;20475;-73
2022/01/11 00:56:21;;;;;;;26.55;11.45;;;;;;;;;;4873331;29;20052;-73
2022/01/11 00:58:47;;;;;;;21.58;11.43;;;;;;;;;;4873656;29;20475;-73
2022/01/11 01:01:13;;;;;;;23.00;10.77;;;;;;;;;;4873870;29;20071;-73
2022/01/11 01:03:40;;;;;;;23.83;11.88;;;;;;;;;;4873788;29;20052;-73
2022/01/11 01:06:06;;;;;;;23.15;10.45;;;;;;;;;;4865910;29;20093;-74
2022/01/11 01:08:32;;;;;;;24.90;11.68;;;;;;;;;;4853135;29;20508;-73
2022/01/11 01:11:01;;;;;;;23.67;10.98;;;;;;;;;;4854824;29;20506;-73
2022/01/11 01:13:28;;;;;;;25.10;11.43;;;;;;;;;;4854634;29;20049;-73
2022/01/11 01:15:55;;;;;;;26.40;10.98;;;;;;;;;;4837123;29;20048;-73
2022/01/11 01:18:24;;;;;;;23.52;11.57;;;;;;;;;;4854784;29;20041;-73
2022/01/11 01:20:51;;;;;;;24.77;11.48;;;;;;;;;;4855793;29;20057;-73
2022/01/11 01:23:18;;;;;;;27.55;11.68;;;;;;;;;;4855660;29;20045;-73
2022/01/11 01:25:45;;;;;;;28.75;11.65;;;;;;;;;;4855578;29;20041;-73
2022/01/11 01:28:13;;;;;;;25.17;11.65;;;;;;;;;;4855477;29;20037;-73
2022/01/11 01:30:39;;;;;;;24.65;12.98;;;;;;;;;;4856096;29;20084;-74
2022/01/11 01:33:06;;;;;;;27.27;12.65;;;;;;;;;;4855680;29;20040;-73
2022/01/11 01:35:39;;;;;;;24.00;11.15;;;;;;;;;;4874122;29;20475;-74
2022/01/11 01:38:10;;;;;;;25.20;11.90;;;;;;;;;;4874070;29;20535;-73
2022/01/11 01:40:42;;;;;;;24.27;11.38;;;;;;;;;;4874673;29;20064;-73
2022/01/11 01:43:11;;;;;;;26.50;11.80;;;;;;;;;;4874233;29;20685;-73
2022/01/11 01:45:38;;;;;;;27.52;10.95;;;;;;;;;;4873905;29;20052;-73
2022/01/11 01:48:06;;;;;;;20.33;10.68;;;;;;;;;;4873313;29;20045;-74
2022/01/11 01:50:34;;;;;;;23.88;11.45;;;;;;;;;;4874483;29;20470;-73
2022/01/11 01:53:03;;;;;;;22.73;11.30;;;;;;;;;;4873367;29;20045;-73
2022/01/11 01:55:29;;;;;;;21.95;10.68;;;;;;;;;;4872976;29;20049;-73
2022/01/11 01:57:58;;;;;;;22.35;10.32;;;;;;;;;;4873964;29;20479;-74
2022/01/11 02:00:25;;;;;;;20.77;9.65;;;;;;;;;;4865352;29;20064;-74
2022/01/11 02:03:03;;;;;;;25.58;11.40;;;;;;;;;;4891878;29;20052;-73
2022/01/11 02:05:29;;;;;;;20.13;10.60;;;;;;;;;;4889287;29;20502;-74
2022/01/11 02:07:55;;;;;;;19.95;10.25;;;;;;;;;;4873345;29;20120;-74
2022/01/11 02:10:20;;;;;;;26.98;10.82;;;;;;;;;;4873289;29;20660;-74
2022/01/11 02:12:50;;;;;;;23.90;10.43;;;;;;;;;;4873748;29;20414;-74
2022/01/11 02:15:16;;;;;;;20.63;10.15;;;;;;;;;;4873402;29;20524;-74
2022/01/11 02:17:42;;;;;;;24.15;11.00;;;;;;;;;;4873154;29;20049;-74
2022/01/11 02:20:13;;;;;;;23.00;10.23;;;;;;;;;;4873986;29;20036;-74
2022/01/11 02:22:39;;;;;;;22.55;10.52;;;;;;;;;;4873889;29;20049;-74
2022/01/11 02:25:08;;;;;;;20.92;9.85;;;;;;;;;;4873783;29;20048;-74
2022/01/11 02:27:34;;;;;;;22.70;11.13;;;;;;;;;;4875327;29;20486;-74
2022/01/11 02:30:00;;;;;;;21.20;10.50;;;;;;;;;;4877685;29;20041;-74
2022/01/11 02:32:26;;;;;;;27.35;10.40;;;;;;;;;;4877545;29;20044;-73
2022/01/11 02:34:52;;;;;;;21.98;10.60;;;;;;;;;;4877121;29;20080;-74
2022/01/11 02:37:18;;;;;;;19.73;10.18;;;;;;;;;;4876598;29;20207;-73
2022/01/11 02:39:45;;;;;;;25.02;11.40;;;;;;;;;;4877198;29;20479;-74
2022/01/11 02:42:11;;;;;;;19.00;9.43;;;;;;;;;;4882712;29;20056;-73
2022/01/11 02:44:37;;;;;;;21.13;10.25;;;;;;;;;;4867911;29;20041;-73
2022/01/11 02:47:04;;;;;;;24.52;10.95;;;;;;;;;;4883912;29;20060;-75
2022/01/11 02:49:30;;;;;;;21.75;10.57;;;;;;;;;;4885728;29;20113;-73
2022/01/11 02:51:56;;;;;;;25.42;10.82;;;;;;;;;;4899447;29;20040;-73
2022/01/11 02:54:22;;;;;;;21.27;11.27;;;;;;;;;;4900246;29;20055;-74
2022/01/11 02:56:48;;;;;;;22.45;10.23;;;;;;;;;;4903175;29;20060;-73
2022/01/11 02:59:14;;;;;;;21.13;10.68;;;;;;;;;;4885931;29;20052;-73
2022/01/11 03:01:43;;;;;;;22.88;10.32;;;;;;;;;;4903683;29;20068;-73
2022/01/11 03:04:09;;;;;;;20.17;10.95;;;;;;;;;;4903043;29;20044;-73
2022/01/11 03:06:34;;;;;;;21.85;10.25;;;;;;;;;;4888170;29;20111;-73
2022/01/11 03:09:01;;;;;;;22.10;10.10;;;;;;;;;;4881903;29;20072;-72
2022/01/11 03:11:32;;;;;;;22.63;10.75;;;;;;;;;;4882915;29;20496;-74
2022/01/11 03:14:01;;;;;;;21.02;10.75;;;;;;;;;;4866694;29;20123;-74
2022/01/11 03:16:26;;;;;;;21.50;10.10;;;;;;;;;;4883716;29;20395;-73
2022/01/11 03:18:52;;;;;;;20.17;10.30;;;;;;;;;;4883923;29;20299;-74
2022/01/11 03:21:19;;;;;;;20.35;10.10;;;;;;;;;;4880476;29;20052;-72
2022/01/11 03:23:45;;;;;;;17.92;9.57;;;;;;;;;;4876476;29;20053;-73
2022/01/11 03:26:11;;;;;;;19.52;9.55;;;;;;;;;;4877036;29;20064;-73
2022/01/11 03:28:36;;;;;;;20.83;10.15;;;;;;;;;;4876493;29;20129;-74
2022/01/11 03:31:03;;;;;;;19.77;9.95;;;;;;;;;;4876219;29;20081;-73
2022/01/11 03:33:29;;;;;;;24.90;10.75;;;;;;;;;;4876675;29;20041;-74
2022/01/11 03:35:55;;;;;;;19.73;9.75;;;;;;;;;;4876590;29;20512;-73
2022/01/11 03:38:22;;;;;;;25.52;10.65;;;;;;;;;;4874792;29;20064;-74
2022/01/11 03:40:49;;;;;;;20.67;9.40;;;;;;;;;;4876671;29;20037;-73
2022/01/11 03:43:15;;;;;;;20.25;9.88;;;;;;;;;;4859120;29;20041;-73
2022/01/11 03:45:41;;;;;;;19.00;9.23;;;;;;;;;;4876278;29;20629;-74
2022/01/11 03:48:08;;;;;;;21.58;10.10;;;;;;;;;;4876401;29;20053;-73
2022/01/11 03:50:35;;;;;;;21.42;10.10;;;;;;;;;;4876984;29;20037;-74
2022/01/11 04:42:40;;;;;;;19.45;9.55;;;;;;;;;;4875478;29;20419;-74
2022/01/11 04:58:40;;;;;;;19.73;9.07;;;;;;;;;;4851635;29;20038;-73
2022/01/11 05:10:35;;;;;;;22.55;9.85;;;;;;;;;;5243197;23;20053;-71
2022/01/11 05:13:01;;;;;;;19.20;9.77;;;;;;;;;;4818560;29;20075;-73
2022/01/11 05:15:29;;;;;;;16.50;9.70;;;;;;;;;;4860593;29;20033;-74
2022/01/11 05:17:55;;;;;;;21.70;9.93;;;;;;;;;;4859661;29;20050;-73
2022/01/11 05:20:21;;;;;;;18.40;9.10;;;;;;;;;;4843783;29;20073;-73
2022/01/11 05:22:47;;;;;;;18.08;9.32;;;;;;;;;;4860985;29;20044;-74
2022/01/11 05:25:15;;;;;;;20.23;9.35;;;;;;;;;;4843874;29;20045;-73
2022/01/11 05:27:41;;;;;;;16.40;9.30;;;;;;;;;;4843207;29;20514;-73
2022/01/11 05:30:09;;;;;;;16.95;8.98;;;;;;;;;;4844015;29;20041;-74
2022/01/11 05:32:35;;;;;;;15.35;8.30;;;;;;;;;;4859397;29;20041;-74
2022/01/11 05:35:04;;;;;;;24.77;9.27;;;;;;;;;;4859562;29;20064;-74
2022/01/11 05:37:30;;;;;;;17.85;9.52;;;;;;;;;;4843334;29;20058;-74
2022/01/11 05:39:59;;;;;;;17.83;9.52;;;;;;;;;;4859751;29;20120;-74
2022/01/11 05:42:29;;;;;;;20.20;9.20;;;;;;;;;;4843197;29;20045;-73
2022/01/11 05:44:55;;;;;;;19.80;9.00;;;;;;;;;;4859921;29;20037;-74
2022/01/11 05:47:24;;;;;;;17.73;8.73;;;;;;;;;;4859334;29;20136;-73
2022/01/11 05:49:51;;;;;;;17.60;8.80;;;;;;;;;;4860621;29;20038;-73
2022/01/11 05:52:17;;;;;;;19.65;9.50;;;;;;;;;;4859827;29;20046;-73
2022/01/11 05:54:43;;;;;;;16.02;8.82;;;;;;;;;;4859915;29;20464;-73
2022/01/11 05:57:09;;;;;;;20.05;9.75;;;;;;;;;;4859341;29;20053;-74
2022/01/11 05:59:35;;;;;;;19.40;8.65;;;;;;;;;;4860054;29;20057;-74
2022/01/11 06:02:02;;;;;;;19.98;10.32;;;;;;;;;;4861343;29;20488;-74
2022/01/11 06:04:28;;;;;;;21.17;9.40;;;;;;;;;;4864644;29;20045;-73
2022/01/11 06:06:54;;;;;;;21.27;9.55;;;;;;;;;;4863556;29;20498;-74
2022/01/11 06:09:19;;;;;;;17.92;8.85;;;;;;;;;;4863466;29;20187;-73
2022/01/11 06:11:45;;;;;;;17.80;8.57;;;;;;;;;;4863408;29;20077;-74
2022/01/11 06:14:11;;;;;;;17.52;8.30;;;;;;;;;;4863691;29;20052;-73
2022/01/11 06:16:37;;;;;;;19.08;9.85;;;;;;;;;;4864273;29;20041;-72
2022/01/11 06:19:03;;;;;;;18.17;8.45;;;;;;;;;;4863620;29;20065;-74
2022/01/11 06:21:29;;;;;;;21.15;8.73;;;;;;;;;;4863423;29;20037;-73
2022/01/11 06:23:55;;;;;;;16.08;8.40;;;;;;;;;;4863451;29;20117;-74
2022/01/11 06:26:21;;;;;;;28.17;12.15;;;;;;;;;;4861798;29;20045;-73
2022/01/11 06:28:47;;;;;;;29.90;14.65;;;;;;;;;;4863143;29;20049;-73
2022/01/11 06:31:13;;;;;;;22.58;10.63;;;;;;;;;;4846443;29;20129;-73
2022/01/11 06:33:39;;;;;;;19.35;9.48;;;;;;;;;;4863841;29;20033;-72
2022/01/11 06:36:10;;;;;;;17.50;8.43;;;;;;;;;;4862992;29;20041;-72
2022/01/11 06:38:41;;;;;;;16.83;8.38;;;;;;;;;;4862625;29;20384;-72
2022/01/11 06:41:07;;;;;;;18.70;8.68;;;;;;;;;;4862964;29;20038;-72
2022/01/11 06:43:33;;;;;;;17.08;8.75;;;;;;;;;;4863165;29;20033;-73
2022/01/11 06:45:59;;;;;;;17.90;8.63;;;;;;;;;;4846068;29;20400;-73
2022/01/11 06:48:25;;;;;;;17.63;8.90;;;;;;;;;;4863589;29;20033;-73
2022/01/11 06:50:51;;;;;;;20.70;9.10;;;;;;;;;;4863434;29;20033;-74
2022/01/11 06:53:17;;;;;;;15.48;8.65;;;;;;;;;;4863446;29;20033;-74
2022/01/11 06:55:43;;;;;;;18.63;8.77;;;;;;;;;;4863623;29;20038;-74
2022/01/11 06:58:09;;;;;;;21.83;10.63;;;;;;;;;;4862819;29;20096;-74
2022/01/11 07:00:35;;;;;;;18.75;9.93;;;;;;;;;;4862664;29;20079;-74
2022/01/11 07:03:01;;;;;;;20.83;9.85;;;;;;;;;;4845810;29;20477;-73
2022/01/11 07:05:26;;;;;;;18.30;9.32;;;;;;;;;;4863273;29;20049;-74
2022/01/11 07:07:52;;;;;;;20.77;9.73;;;;;;;;;;4862754;29;20039;-74
2022/01/11 07:10:18;;;;;;;19.38;10.48;;;;;;;;;;4845819;29;20104;-74
2022/01/11 07:12:44;;;;;;;19.70;9.80;;;;;;;;;;4860679;29;20052;-73
2022/01/11 07:15:11;;;;;;;23.38;10.30;;;;;;;;;;4861996;29;20045;-74
2022/01/11 07:17:37;;;;;;;18.17;9.23;;;;;;;;;;4862184;29;20029;-73
2022/01/11 07:20:07;;;;;;;17.92;9.35;;;;;;;;;;4862090;29;20483;-74
2022/01/11 07:22:33;;;;;;;19.85;9.05;;;;;;;;;;4846683;29;20026;-74
2022/01/11 07:25:02;;;;;;;18.58;9.13;;;;;;;;;;4830112;29;20076;-73
2022/01/11 07:27:28;;;;;;;29.75;15.27;;;;;;;;;;4862292;29;20033;-74
2022/01/11 07:29:55;;;;;;;37.40;19.10;;;;;;;;;;4862053;29;20049;-73
2022/01/11 07:32:21;;;;;;;26.88;11.95;;;;;;;;;;4862765;29;20340;-74
2022/01/11 07:34:47;;;;;;;19.00;9.45;;;;;;;;;;4861626;29;20049;-74
2022/01/11 07:37:13;;;;;;;19.23;9.43;;;;;;;;;;4862569;29;20039;-74
2022/01/11 07:39:39;;;;;;;21.15;10.27;;;;;;;;;;4844967;29;20461;-74
2022/01/11 07:42:05;;;;;;;22.70;10.23;;;;;;;;;;4861593;29;20081;-74
2022/01/11 07:44:30;;;;;;;18.30;9.15;;;;;;;;;;4861451;29;20046;-74
2022/01/11 07:46:56;;;;;;;19.30;10.13;;;;;;;;;;4845141;29;20047;-73
2022/01/11 07:49:22;;;;;;;24.75;11.48;;;;;;;;;;4845567;29;20080;-73
2022/01/11 07:51:48;;;;;;;20.50;11.15;;;;;;;;;;4862670;29;20033;-74
2022/01/11 07:54:15;;;;;;;21.88;10.20;;;;;;;;;;4861537;29;20045;-74
2022/01/11 07:56:41;;;;;;;18.73;10.52;;;;;;;;;;4862519;29;20033;-73
2022/01/11 07:59:09;;;;;;;23.50;11.43;;;;;;;;;;4862043;29;20599;-73
2022/01/11 08:01:35;;;;;;;20.63;10.25;;;;;;;;;;4861456;29;20052;-74
2022/01/11 08:04:01;;;;;;;26.90;11.65;;;;;;;;;;4861186;29;20045;-74
2022/01/11 08:06:27;;;;;;;23.75;11.20;;;;;;;;;;4860765;29;20506;-74
2022/01/11 08:08:53;;;;;;;19.67;10.07;;;;;;;;;;4844409;29;20136;-74
2022/01/11 08:11:19;;;;;;;21.75;11.05;;;;;;;;;;4861145;29;20072;-74
2022/01/11 08:13:45;;;;;;;22.73;10.38;;;;;;;;;;4862245;29;20112;-74
2022/01/11 08:16:10;;;;;;;20.45;9.45;;;;;;;;;;4861550;29;20065;-74
2022/01/11 08:18:36;;;;;;;22.40;10.25;;;;;;;;;;4860863;29;20463;-74
2022/01/11 08:21:02;;;;;;;19.00;9.52;;;;;;;;;;4862015;29;20120;-73
2022/01/11 08:23:28;;;;;;;18.65;9.55;;;;;;;;;;4861833;29;20030;-74
2022/01/11 08:25:54;;;;;;;19.55;9.88;;;;;;;;;;4845110;29;20349;-75
2022/01/11 08:28:20;;;;;;;19.15;9.60;;;;;;;;;;4861578;29;20475;-74
2022/01/11 08:30:46;;;;;;;19.17;10.23;;;;;;;;;;4861937;29;20034;-74
2022/01/11 08:33:12;;;;;;;29.73;15.32;;;;;;;;;;4844756;29;20219;-73
2022/01/11 08:35:38;;;;;;;24.15;10.73;;;;;;;;;;4859716;29;20037;-74
2022/01/11 08:38:04;;;;;;;21.00;10.57;;;;;;;;;;4843812;29;20052;-72
2022/01/11 08:40:30;;;;;;;18.30;8.50;;;;;;;;;;4864772;29;20040;-74
2022/01/11 08:42:56;;;;;;;19.85;9.73;;;;;;;;;;4861727;29;20025;-73
2022/01/11 08:45:22;;;;;;;20.42;9.73;;;;;;;;;;4860829;29;20399;-74
2022/01/11 08:47:48;;;;;;;19.63;9.57;;;;;;;;;;4861585;29;20505;-73
2022/01/11 08:50:15;;;;;;;18.00;9.38;;;;;;;;;;4860734;29;20038;-74
2022/01/11 08:52:42;;;;;;;20.73;9.90;;;;;;;;;;4860463;29;20033;-74
2022/01/11 08:55:11;;;;;;;19.08;9.70;;;;;;;;;;4863683;29;20049;-71
2022/01/11 08:57:37;;;;;;;19.45;9.77;;;;;;;;;;4863210;29;20052;-71
2022/01/11 09:00:10;;;;;;;16.73;8.88;;;;;;;;;;4864069;29;20034;-72
2022/01/11 09:02:37;;;;;;;20.50;9.20;;;;;;;;;;4864132;29;20041;-73
2022/01/11 09:05:03;;;;;;;20.77;9.32;;;;;;;;;;4860155;29;20056;-74
2022/01/11 09:07:29;;;;;;;21.55;10.27;;;;;;;;;;4859002;29;20046;-74
2022/01/11 09:09:55;;;;;;;15.75;9.07;;;;;;;;;;4861443;29;20060;-75
2022/01/11 09:12:21;;;;;;;21.73;9.68;;;;;;;;;;4843649;29;20097;-75
2022/01/11 09:14:47;;;;;;;21.95;10.10;;;;;;;;;;4860871;29;20037;-74
2022/01/11 09:17:13;;;;;;;16.98;9.57;;;;;;;;;;4843877;29;20531;-73
2022/01/11 09:19:39;;;;;;;20.48;10.70;;;;;;;;;;4860227;29;20061;-74
2022/01/11 09:22:08;;;;;;;19.73;9.55;;;;;;;;;;4859324;29;20124;-74
2022/01/11 09:24:36;;;;;;;16.95;8.65;;;;;;;;;;4860595;29;20052;-75
2022/01/11 09:27:04;;;;;;;21.90;9.82;;;;;;;;;;4859907;29;20492;-75
2022/01/11 09:29:36;;;;;;;19.42;9.70;;;;;;;;;;4860620;29;20029;-74
2022/01/11 09:32:04;;;;;;;17.42;9.27;;;;;;;;;;4844696;29;20491;-75
2022/01/11 09:34:31;;;;;;;23.25;8.93;;;;;;;;;;4859605;29;20042;-74
2022/01/11 09:36:57;;;;;;;18.23;9.55;;;;;;;;;;4859871;29;20048;-74
2022/01/11 09:39:25;;;;;;;22.40;8.90;;;;;;;;;;4860495;29;20037;-73
2022/01/11 09:41:51;;;;;;;20.27;9.00;;;;;;;;;;4860686;29;20040;-74
2022/01/11 09:44:18;;;;;;;18.30;8.00;;;;;;;;;;4860616;29;20464;-73
2022/01/11 09:46:45;;;;;;;18.02;8.73;;;;;;;;;;4860434;29;20099;-74
2022/01/11 09:49:11;;;;;;;16.27;8.35;;;;;;;;;;4859634;29;20061;-73
2022/01/11 09:51:37;;;;;;;21.13;9.85;;;;;;;;;;4860093;29;20026;-73
2022/01/11 09:54:04;;;;;;;17.52;9.00;;;;;;;;;;4844671;29;20476;-73
2022/01/11 09:56:34;;;;;;;16.88;8.10;;;;;;;;;;4861199;29;20076;-74
2022/01/11 09:59:00;;;;;;;13.98;7.47;;;;;;;;;;4859885;29;20050;-75
2022/01/11 10:01:26;;;;;;;15.18;8.15;;;;;;;;;;4860425;29;20026;-74
2022/01/11 10:04:04;;;;;;;20.65;7.75;;;;;;;;;;4859085;29;20064;-75
2022/01/11 10:06:32;;;;;;;17.85;7.65;;;;;;;;;;4860357;29;20029;-72
2022/01/11 10:09:16;;;;;;;18.48;8.57;;;;;;;;;;4859500;29;20053;-74
2022/01/11 10:11:46;;;;;;;14.30;7.80;;;;;;;;;;4859909;29;20046;-74
2022/01/11 10:14:31;;;;;;;31.95;15.27;;;;;;;;;;4860202;29;20030;-74
2022/01/11 10:17:21;;;;;;;22.20;12.30;;;;;;;;;;4859500;29;20042;-74
2022/01/11 10:19:59;;;;;;;17.75;8.32;;;;;;;;;;4859156;29;20046;-72
2022/01/11 10:22:25;;;;;;;15.98;8.00;;;;;;;;;;4838506;29;20459;-73
2022/01/11 10:24:54;;;;;;;13.50;7.25;;;;;;;;;;4842776;29;20052;-72
2022/01/11 10:27:26;;;;;;;14.52;7.05;;;;;;;;;;4859459;29;20048;-73
2022/01/11 10:29:57;;;;;;;13.60;7.45;;;;;;;;;;4859827;29;20041;-73
2022/01/11 10:32:33;;;;;;;16.77;8.00;;;;;;;;;;4859508;29;20041;-72
2022/01/11 10:35:03;;;;;;;14.35;7.50;;;;;;;;;;4859893;29;20037;-73
2022/01/11 10:37:41;;;;;;;13.38;7.25;;;;;;;;;;4860232;29;20033;-74
2022/01/11 10:40:17;;;;;;;17.48;8.00;;;;;;;;;;4859958;29;20029;-74
2022/01/11 10:42:50;;;;;;;16.88;7.75;;;;;;;;;;4859355;29;20045;-74
2022/01/11 10:45:28;;;;;;;14.93;7.70;;;;;;;;;;4842467;29;20041;-75
2022/01/11 10:48:00;;;;;;;16.45;7.85;;;;;;;;;;4861550;29;20045;-73
2022/01/11 10:50:43;;;;;;;15.45;7.57;;;;;;;;;;4863268;29;20482;-73
2022/01/11 10:53:16;;;;;;;19.23;7.45;;;;;;;;;;4862751;29;20465;-73
2022/01/11 10:55:47;;;;;;;13.38;7.32;;;;;;;;;;4863487;29;20396;-73
2022/01/11 10:58:13;;;;;;;15.68;8.00;;;;;;;;;;4862068;29;20041;-73
2022/01/11 11:00:42;;;;;;;20.17;11.20;;;;;;;;;;4863053;29;20034;-73
2022/01/11 11:03:17;;;;;;;27.20;10.60;;;;;;;;;;4863020;29;20112;-73
2022/01/11 11:05:52;;;;;;;20.02;10.15;;;;;;;;;;4846124;29;20136;-73
2022/01/11 11:08:25;;;;;;;16.77;7.50;;;;;;;;;;4862791;29;20468;-73
2022/01/11 11:10:56;;;;;;;16.98;7.45;;;;;;;;;;4861593;29;20065;-73
2022/01/11 11:13:34;;;;;;;13.90;7.43;;;;;;;;;;4862151;29;20045;-73
2022/01/11 11:16:09;;;;;;;14.52;7.35;;;;;;;;;;4862739;29;20034;-73
2022/01/11 11:18:42;;;;;;;13.93;6.95;;;;;;;;;;4845541;29;20054;-75
2022/01/11 11:21:16;;;;;;;15.85;8.27;;;;;;;;;;4861524;29;20054;-72
2022/01/11 11:23:42;;;;;;;15.27;7.38;;;;;;;;;;4863100;29;20040;-72
2022/01/11 11:26:08;;;;;;;14.30;7.63;;;;;;;;;;4847005;29;20045;-75
2022/01/11 11:28:44;;;;;;;15.18;7.80;;;;;;;;;;4861896;29;20042;-75
2022/01/11 11:31:10;;;;;;;14.10;7.90;;;;;;;;;;4865769;29;20038;-73
2022/01/11 11:38:58;;;;;;;16.60;7.82;;;;;;;;;;5002826;23;20105;-71
2022/01/11 11:41:26;;;;;;;16.23;8.68;;;;;;;;;;4861336;29;20063;-73
2022/01/11 11:44:16;;;;;;;20.30;8.95;;;;;;;;;;4881103;29;20037;-73
2022/01/11 11:46:47;;;;;;;16.35;8.27;;;;;;;;;;4875940;29;20047;-73
2022/01/11 11:49:14;;;;;;;16.00;8.38;;;;;;;;;;4875991;29;20060;-73
2022/01/11 11:51:46;;;;;;;21.15;9.13;;;;;;;;;;4876243;29;20033;-73
2022/01/11 11:54:16;;;;;;;;;;;;;;;;;;4876182;29;20041;-73
2022/01/11 11:56:46;;;;;;;18.90;8.73;;;;;;;;;;4875534;29;19920;-73
2022/01/11 11:59:13;;;;;;;22.17;9.27;;;;;;;;;;4874704;29;20537;-73
2022/01/11 12:01:42;;;;;;;20.77;9.55;;;;;;;;;;4866795;29;20053;-73
2022/01/11 12:04:31;;;;;;;17.40;9.48;;;;;;;;;;4864050;29;20072;-73
2022/01/11 12:07:00;;;;;;;19.45;9.75;;;;;;;;;;4868467;29;20477;-73
2022/01/11 12:09:31;;;;;;;18.40;9.50;;;;;;;;;;4866932;29;20439;-74
2022/01/11 12:12:02;;;;;;;20.38;9.30;;;;;;;;;;4876922;29;20064;-72
2022/01/11 12:14:37;;;;;;;17.47;8.80;;;;;;;;;;4876000;29;20028;-74
2022/01/11 12:17:12;;;;;;;20.98;9.98;;;;;;;;;;4861856;29;21024;-74
2022/01/11 12:19:49;;;;;;;21.45;9.25;;;;;;;;;;4864323;29;20499;-75
2022/01/11 12:22:19;;;;;;;23.60;9.27;;;;;;;;;;4857781;29;20045;-75
2022/01/11 12:24:48;;;;;;;16.90;8.55;;;;;;;;;;4872816;29;20494;-75
2022/01/11 12:27:18;;;;;;;20.70;9.02;;;;;;;;;;4881528;29;20052;-74
2022/01/11 12:29:56;;;;;;;16.20;9.00;;;;;;;;;;4872918;29;20061;-76
2022/01/11 12:32:23;;;;;;;20.73;9.52;;;;;;;;;;4872279;29;20423;-74
2022/01/11 12:34:59;;;;;;;19.55;9.20;;;;;;;;;;4854964;29;20079;-74
2022/01/11 12:37:29;;;;;;;20.67;10.32;;;;;;;;;;4863191;29;20045;-74
2022/01/11 12:40:19;;;;;;;25.40;9.57;;;;;;;;;;4863575;29;20407;-74
2022/01/11 12:43:06;;;;;;;20.98;9.20;;;;;;;;;;4870857;29;20507;-74
2022/01/11 12:46:04;;;;;;;21.60;9.95;;;;;;;;;;4874973;29;20486;-74
2022/01/11 12:48:42;;;;;;;20.02;9.50;;;;;;;;;;4874971;29;20674;-74
2022/01/11 12:51:10;;;;;;;30.17;16.38;;;;;;;;;;4875251;29;20048;-74
2022/01/11 12:53:36;;;;;;;26.23;14.05;;;;;;;;;;4876177;29;20061;-74
2022/01/11 12:56:02;;;;;;;18.60;10.25;;;;;;;;;;4872368;29;20175;-74
2022/01/11 12:58:29;;;;;;;21.38;9.60;;;;;;;;;;4872167;29;20701;-74
2022/01/11 13:00:56;;;;;;;25.40;10.20;;;;;;;;;;4875151;29;20037;-74
2022/01/11 13:03:22;;;;;;;18.92;10.07;;;;;;;;;;4870692;29;20486;-74
2022/01/11 13:05:51;;;;;;;19.00;9.40;;;;;;;;;;4857598;29;20052;-74
2022/01/11 13:08:27;;;;;;;19.00;9.30;;;;;;;;;;4873039;29;20073;-74
2022/01/11 13:10:53;;;;;;;20.92;10.15;;;;;;;;;;4874368;29;20037;-74
2022/01/11 13:13:24;;;;;;;18.55;9.25;;;;;;;;;;4874376;29;20057;-73
2022/01/11 13:15:50;;;;;;;22.58;9.60;;;;;;;;;;4874416;29;20611;-75
2022/01/11 13:18:22;;;;;;;21.63;10.30;;;;;;;;;;4874830;29;20593;-74
2022/01/11 13:20:53;;;;;;;17.38;9.40;;;;;;;;;;4871698;29;20072;-74
2022/01/11 13:23:27;;;;;;;;;;;;;;;;;;4874498;29;20044;-74
2022/01/11 13:25:58;;;;;;;20.15;9.60;;;;;;;;;;4873765;29;19930;-74
2022/01/11 13:29:08;;;;;;;20.90;10.07;;;;;;;;;;4873845;29;20068;-75
2022/01/11 13:31:36;;;;;;;20.67;10.20;;;;;;;;;;4870845;29;20049;-76
2022/01/11 13:34:08;;;;;;;20.55;9.52;;;;;;;;;;4874386;29;20040;-74
2022/01/11 13:36:38;;;;;;;19.85;10.00;;;;;;;;;;4873096;29;20071;-75
2022/01/11 13:39:04;;;;;;;20.93;11.10;;;;;;;;;;4872441;29;20041;-74
2022/01/11 13:41:49;;;;;;;16.33;8.77;;;;;;;;;;4874663;29;20493;-74
2022/01/11 13:44:19;;;;;;;21.80;10.02;;;;;;;;;;4859184;29;20418;-76
2022/01/11 13:46:50;;;;;;;18.63;10.20;;;;;;;;;;4876014;29;20037;-74
2022/01/11 13:49:29;;;;;;;21.92;11.65;;;;;;;;;;4873443;29;20041;-77
2022/01/11 13:51:58;;;;;;;36.08;20.83;;;;;;;;;;4874195;29;20045;-74
2022/01/11 13:54:35;;;;;;;27.75;14.60;;;;;;;;;;4872494;29;20514;-74
2022/01/11 13:57:06;;;;;;;25.70;10.85;;;;;;;;;;4872329;29;20085;-75
2022/01/11 13:59:33;;;;;;;;;;;;;;;;;;4859004;29;20036;-75
2022/01/11 14:02:05;;;;;;;21.13;10.25;;;;;;;;;;4872675;29;19927;-76
2022/01/11 14:04:49;;;;;;;20.05;9.73;;;;;;;;;;4872037;29;20056;-75
2022/01/11 14:07:20;;;;;;;19.70;9.80;;;;;;;;;;4856442;29;20049;-76
2022/01/11 14:09:51;;;;;;;23.00;10.30;;;;;;;;;;4873286;29;20498;-76
2022/01/11 14:12:30;;;;;;;23.55;10.90;;;;;;;;;;4872719;29;20049;-75
2022/01/11 14:15:06;;;;;;;20.90;10.90;;;;;;;;;;4884813;29;20045;-75
2022/01/11 14:17:35;;;;;;;20.10;9.93;;;;;;;;;;4876659;29;20052;-74
2022/01/11 14:20:08;;;;;;;21.08;9.93;;;;;;;;;;4881680;29;20044;-75
2022/01/11 14:22:45;;;;;;;19.73;10.55;;;;;;;;;;4876587;29;20483;-74
2022/01/11 14:25:33;;;;;;;24.50;10.25;;;;;;;;;;4876895;29;20048;-76
2022/01/11 14:28:01;;;;;;;20.45;9.80;;;;;;;;;;4875270;29;20029;-75
2022/01/11 14:30:48;;;;;;;14.93;9.20;;;;;;;;;;4877447;29;20186;-73
2022/01/11 14:33:22;;;;;;;20.58;10.30;;;;;;;;;;4861744;29;20516;-73
2022/01/11 14:36:18;;;;;;;21.40;10.48;;;;;;;;;;4861389;29;20042;-76
2022/01/11 14:44:01;;;;;;;18.75;10.85;;;;;;;;;;4920162;23;20493;-85
2022/01/11 14:46:28;;;;;;;22.95;10.43;;;;;;;;;;4917527;29;20062;-88
2022/01/11 14:49:07;;;;;;;17.73;10.18;;;;;;;;;;4912040;29;20429;-81
2022/01/11 14:51:43;;;;;;;19.58;10.38;;;;;;;;;;4934520;29;20064;-82
2022/01/11 14:54:14;;;;;;;19.05;10.52;;;;;;;;;;4915438;29;20482;-80
2022/01/11 14:56:46;;;;;;;21.40;10.90;;;;;;;;;;4926220;29;20263;-74
2022/01/11 14:59:15;;;;;;;20.80;10.20;;;;;;;;;;4917171;29;20422;-77
2022/01/11 15:01:54;;;;;;;20.58;9.70;;;;;;;;;;4898626;29;20056;-75
2022/01/11 15:04:22;;;;;;;25.60;11.20;;;;;;;;;;4916732;29;20109;-76
2022/01/11 15:06:57;;;;;;;26.55;11.80;;;;;;;;;;4919132;29;20061;-76
2022/01/11 15:09:35;;;;;;;20.73;11.35;;;;;;;;;;4917744;29;20815;-81
2022/01/11 15:12:20;;;;;;;26.23;11.73;;;;;;;;;;4922985;29;20032;-78
2022/01/11 15:14:53;;;;;;;28.92;11.07;;;;;;;;;;4916522;29;20040;-80
2022/01/11 15:17:20;;;;;;;34.38;11.35;;;;;;;;;;4921632;29;20661;-78
2022/01/11 15:19:47;;;;;;;28.13;11.27;;;;;;;;;;4914057;29;20380;-80
2022/01/11 15:22:13;;;;;;;29.92;11.68;;;;;;;;;;4920366;29;20064;-81
2022/01/11 15:24:39;;;;;;;20.08;10.77;;;;;;;;;;4915414;29;20193;-76
2022/01/11 15:27:05;;;;;;;24.10;11.35;;;;;;;;;;4919055;29;20041;-76
2022/01/11 15:29:31;;;;;;;23.10;10.90;;;;;;;;;;4910816;29;20040;-77
2022/01/11 15:32:00;;;;;;;23.33;10.88;;;;;;;;;;4930696;29;20051;-81
2022/01/11 15:34:27;;;;;;;23.52;11.63;;;;;;;;;;4901515;29;20042;-82
2022/01/11 15:36:53;;;;;;;23.20;10.75;;;;;;;;;;4925053;29;20465;-80
2022/01/11 15:39:22;;;;;;;24.30;11.75;;;;;;;;;;4922510;29;20391;-83
2022/01/11 15:41:50;;;;;;;33.78;11.98;;;;;;;;;;4932936;29;20469;-83
2022/01/11 15:44:17;;;;;;;29.20;12.50;;;;;;;;;;4920960;29;20044;-77
2022/01/11 15:46:46;;;;;;;21.55;11.32;;;;;;;;;;4921009;29;20373;-76
2022/01/11 15:49:13;;;;;;;31.27;12.27;;;;;;;;;;4927098;29;20036;-76
2022/01/11 15:51:40;;;;;;;19.38;10.85;;;;;;;;;;4916573;29;20051;-75
2022/01/11 15:54:11;;;;;;;30.10;11.50;;;;;;;;;;4922153;29;20055;-76
2022/01/11 15:56:37;;;;;;;21.42;10.60;;;;;;;;;;4914685;29;20048;-75
2022/01/11 15:59:03;;;;;;;25.05;10.23;;;;;;;;;;4915802;29;20040;-74